createdAt,value
2022-11-24T00:01:22.368Z,60.71
2022-11-24T00:03:59.987Z,60.57
2022-11-24T00:06:28.182Z,60.61
2022-11-24T00:08:54.830Z,60.67
2022-11-24T00:11:24.250Z,60.69
2022-11-24T00:13:50.716Z,60.81
2022-11-24T00:16:19.676Z,61.09
2022-11-24T00:18:48.152Z,61.24
2022-11-24T00:21:16.418Z,61.35
2022-11-24T00:23:43.541Z,61.33
2022-11-24T00:26:17.934Z,61.29
2022-11-24T00:28:45.863Z,61.67
2022-11-24T00:31:23.257Z,61.83
2022-11-24T00:33:52.915Z,61.66
2022-11-24T00:36:21.114Z,62.06
2022-11-24T00:38:47.776Z,61.81
2022-11-24T00:41:14.361Z,62.17
2022-11-24T00:43:40.761Z,62.24
2022-11-24T00:46:07.262Z,62.23
2022-11-24T00:48:33.680Z,62.35
2022-11-24T00:51:02.562Z,62.30
2022-11-24T00:53:29.808Z,62.65
2022-11-24T00:55:56.533Z,62.58
2022-11-24T00:58:24.533Z,62.70
2022-11-24T01:00:52.253Z,62.88
2022-11-24T01:03:20.277Z,62.65
2022-11-24T01:05:46.669Z,62.76
2022-11-24T01:08:13.058Z,63.06
2022-11-24T01:10:39.426Z,63.10
2022-11-24T01:13:06.067Z,63.49
2022-11-24T01:15:35.257Z,63.52
2022-11-24T01:18:01.790Z,63.70
2022-11-24T01:20:28.258Z,63.58
2022-11-24T01:22:54.594Z,63.64
2022-11-24T01:25:20.953Z,63.51
2022-11-24T01:27:47.327Z,63.63
2022-11-24T01:30:13.685Z,63.79
2022-11-24T01:32:40.045Z,63.77
2022-11-24T01:35:06.959Z,63.53
2022-11-24T01:37:33.447Z,63.93
2022-11-24T01:39:59.790Z,63.90
2022-11-24T01:42:26.187Z,63.87
2022-11-24T01:45:29.570Z,63.86
2022-11-24T01:47:56.672Z,64.06
2022-11-24T01:50:23.878Z,64.10
2022-11-24T01:52:53.868Z,64.36
2022-11-24T01:55:25.509Z,64.43
2022-11-24T01:57:59.650Z,64.32
2022-11-24T02:00:26.396Z,64.75
2022-11-24T02:02:53.450Z,64.25
2022-11-24T02:05:28.188Z,64.56
2022-11-24T02:07:57.222Z,64.17
2022-11-24T02:10:23.822Z,64.44
2022-11-24T02:12:53.362Z,64.57
2022-11-24T02:15:20.677Z,64.92
2022-11-24T02:17:47.022Z,64.36
2022-11-24T02:20:14.905Z,64.64
2022-11-24T02:23:03.036Z,64.34
2022-11-24T02:25:58.990Z,64.86
2022-11-24T02:28:30.130Z,64.23
2022-11-24T02:30:57.940Z,64.53
2022-11-24T02:33:25.251Z,65.04
2022-11-24T02:35:52.525Z,64.64
2022-11-24T02:38:19.214Z,64.70
2022-11-24T02:40:48.492Z,64.65
2022-11-24T02:43:20.576Z,64.62
2022-11-24T02:45:47.386Z,64.64
2022-11-24T02:48:15.438Z,64.59
2022-11-24T02:50:41.882Z,65.13
2022-11-24T02:53:08.274Z,65.34
2022-11-24T02:55:34.633Z,65.89
2022-11-24T02:58:00.993Z,65.90
2022-11-24T03:00:27.339Z,65.95
2022-11-24T03:02:53.794Z,66.34
2022-11-24T03:05:20.201Z,65.81
2022-11-24T03:07:46.679Z,66.27
2022-11-24T03:10:13.098Z,65.95
2022-11-24T03:12:39.706Z,66.31
2022-11-24T03:15:06.564Z,66.51
2022-11-24T03:17:32.897Z,66.05
2022-11-24T03:20:04.547Z,66.55
2022-11-24T03:22:31.077Z,66.50
2022-11-24T03:24:57.458Z,66.42
2022-11-24T03:27:23.828Z,66.27
2022-11-24T03:29:50.221Z,66.34
2022-11-24T03:32:16.666Z,66.72
2022-11-24T03:34:43.001Z,66.58
2022-11-24T03:37:09.504Z,66.89
2022-11-24T03:39:35.852Z,67.02
2022-11-24T03:42:02.212Z,67.17
2022-11-24T03:44:28.539Z,67.03
2022-11-24T03:46:54.929Z,67.45
2022-11-24T03:49:21.298Z,67.27
2022-11-24T03:51:47.627Z,67.31
2022-11-24T03:54:14.005Z,67.82
2022-11-24T03:56:40.328Z,67.75
2022-11-24T03:59:06.656Z,67.84
2022-11-24T04:01:33.040Z,67.47
2022-11-24T04:03:59.429Z,67.54
2022-11-24T04:06:25.889Z,67.41
2022-11-24T04:08:52.294Z,67.18
2022-11-24T04:11:47.893Z,67.37
2022-11-24T04:14:14.366Z,67.10
2022-11-24T04:16:41.268Z,67.42
2022-11-24T04:19:07.791Z,67.40
2022-11-24T04:21:34.143Z,67.06
2022-11-24T04:24:00.522Z,67.20
2022-11-24T04:26:27.693Z,67.09
2022-11-24T04:28:54.029Z,67.21
2022-11-24T04:31:20.431Z,67.43
2022-11-24T04:33:46.864Z,67.40
2022-11-24T04:36:13.251Z,67.17
2022-11-24T04:39:23.768Z,67.21
2022-11-24T04:41:25.991Z,66.98
2022-11-24T04:43:52.806Z,66.74
2022-11-24T04:46:19.227Z,66.91
2022-11-24T04:48:45.675Z,66.38
2022-11-24T04:51:14.003Z,66.23
2022-11-24T04:53:40.364Z,66.25
2022-11-24T04:56:07.977Z,65.94
2022-11-24T04:58:34.366Z,66.08
2022-11-24T05:01:00.729Z,65.93
2022-11-24T05:03:27.124Z,66.22
2022-11-24T05:05:53.457Z,66.35
2022-11-24T05:08:19.778Z,66.26
2022-11-24T05:10:46.100Z,66.18
2022-11-24T05:13:13.795Z,66.13
2022-11-24T05:15:41.410Z,66.29
2022-11-24T05:18:10.539Z,66.61
2022-11-24T05:20:37.170Z,66.58
2022-11-24T05:23:05.627Z,66.35
2022-11-24T05:25:32.909Z,66.91
2022-11-24T05:28:01.745Z,66.65
2022-11-24T05:30:29.057Z,66.63
2022-11-24T05:32:55.468Z,66.63
2022-11-24T05:35:22.062Z,66.75
2022-11-24T05:37:48.611Z,66.48
2022-11-24T05:40:15.347Z,66.58
2022-11-24T05:42:46.602Z,66.74
2022-11-24T05:45:17.530Z,66.67
2022-11-24T05:47:44.267Z,67.09
2022-11-24T05:50:12.851Z,66.91
2022-11-24T05:52:39.261Z,67.00
2022-11-24T05:55:06.585Z,67.17
2022-11-24T05:57:32.942Z,66.97
2022-11-24T05:59:59.417Z,66.98
2022-11-24T06:02:25.891Z,66.70
2022-11-24T06:04:52.638Z,66.77
2022-11-24T06:07:19.080Z,66.46
2022-11-24T06:09:45.867Z,66.63
2022-11-24T06:12:12.995Z,66.41
2022-11-24T06:14:39.681Z,66.62
2022-11-24T06:17:06.877Z,66.19
2022-11-24T06:19:35.501Z,66.36
2022-11-24T06:22:05.029Z,66.17
2022-11-24T06:24:31.402Z,66.38
2022-11-24T06:26:57.901Z,66.39
2022-11-24T06:29:24.271Z,66.55
2022-11-24T06:31:50.689Z,66.66
2022-11-24T06:34:17.192Z,66.62
2022-11-24T06:36:43.486Z,66.84
2022-11-24T06:39:10.237Z,66.75
2022-11-24T06:41:36.541Z,66.60
2022-11-24T06:44:04.835Z,66.97
2022-11-24T06:46:31.860Z,66.88
2022-11-24T06:48:59.631Z,67.01
2022-11-24T06:51:27.150Z,66.72
2022-11-24T06:53:53.579Z,66.81
2022-11-24T06:56:21.137Z,66.61
2022-11-24T06:58:49.813Z,66.23
2022-11-24T07:01:24.672Z,66.01
2022-11-24T07:03:52.241Z,65.79
2022-11-24T07:06:19.895Z,65.65
2022-11-24T07:08:47.280Z,66.15
2022-11-24T07:11:16.414Z,66.29
2022-11-24T07:13:43.624Z,66.54
2022-11-24T07:16:30.629Z,66.37
2022-11-24T07:18:57.088Z,66.14
2022-11-24T07:21:24.641Z,65.97
2022-11-24T07:23:52.530Z,65.89
2022-11-24T07:26:19.740Z,66.29
2022-11-24T07:28:46.056Z,66.13
2022-11-24T07:31:21.615Z,66.36
2022-11-24T07:33:49.923Z,66.35
2022-11-24T07:36:16.269Z,66.52
2022-11-24T07:38:42.741Z,66.99
2022-11-24T07:41:11.713Z,67.22
2022-11-24T07:43:38.818Z,67.32
2022-11-24T07:46:07.563Z,67.71
2022-11-24T07:48:34.679Z,67.61
2022-11-24T07:51:02.506Z,68.00
2022-11-24T07:53:29.222Z,67.87
2022-11-24T07:55:58.072Z,67.63
2022-11-24T07:58:27.666Z,67.98
2022-11-24T08:00:58.329Z,67.67
2022-11-24T08:03:27.514Z,67.61
2022-11-24T08:06:23.217Z,67.50
2022-11-24T08:08:47.278Z,67.38
2022-11-24T08:11:17.115Z,67.51
2022-11-24T08:13:44.515Z,67.11
2022-11-24T08:16:13.383Z,67.48
2022-11-24T08:18:39.841Z,67.71
2022-11-24T08:21:06.918Z,67.53
2022-11-24T08:23:34.137Z,67.19
2022-11-24T08:26:09.281Z,67.26
2022-11-24T08:28:36.659Z,67.41
2022-11-24T08:31:09.438Z,67.48
2022-11-24T08:33:36.240Z,67.58
2022-11-24T08:36:08.762Z,67.46
2022-11-24T08:38:35.267Z,67.76
2022-11-24T08:41:06.462Z,67.63
2022-11-24T08:43:33.541Z,68.02
2022-11-24T08:46:06.220Z,67.79
2022-11-24T08:48:33.532Z,67.47
2022-11-24T08:51:07.638Z,67.89
2022-11-24T08:53:34.115Z,67.96
2022-11-24T08:56:01.006Z,67.89
2022-11-24T08:58:28.899Z,68.43
2022-11-24T09:00:55.407Z,68.15
2022-11-24T09:03:22.027Z,68.23
2022-11-24T09:05:52.788Z,68.24
2022-11-24T09:08:19.424Z,67.89
2022-11-24T09:10:46.636Z,68.14
2022-11-24T09:13:12.925Z,68.02
2022-11-24T09:15:39.297Z,67.94
2022-11-24T09:18:06.000Z,67.90
2022-11-24T09:20:32.311Z,68.13
2022-11-24T09:22:58.683Z,68.03
2022-11-24T09:25:25.031Z,68.00
2022-11-24T09:27:51.646Z,68.16
2022-11-24T09:30:18.169Z,67.89
2022-11-24T09:32:44.619Z,67.96
2022-11-24T09:35:10.922Z,67.97
2022-11-24T09:37:37.305Z,68.07
2022-11-24T09:40:04.006Z,68.44
2022-11-24T09:42:58.954Z,67.93
2022-11-24T09:46:04.585Z,67.91
2022-11-24T09:48:36.262Z,67.75
2022-11-24T09:51:04.295Z,67.78
2022-11-24T09:53:32.645Z,67.89
2022-11-24T09:56:18.157Z,67.76
2022-11-24T09:59:18.768Z,67.70
2022-11-24T10:01:47.406Z,67.77
2022-11-24T10:04:19.944Z,67.52
2022-11-24T10:07:11.546Z,67.43
2022-11-24T10:10:02.913Z,67.24
2022-11-24T10:13:03.334Z,67.41
2022-11-24T10:15:35.738Z,67.65
2022-11-24T10:18:30.540Z,67.76
2022-11-24T10:21:32.896Z,67.93
2022-11-24T10:24:32.248Z,68.44
2022-11-24T10:27:10.606Z,69.15
2022-11-24T10:29:40.713Z,69.57
2022-11-24T10:32:26.825Z,69.83
2022-11-24T10:34:55.110Z,69.66
2022-11-24T10:37:30.181Z,69.03
2022-11-24T10:40:32.941Z,68.54
2022-11-24T10:42:59.565Z,67.65
2022-11-24T10:45:27.885Z,67.39
2022-11-24T10:47:54.206Z,66.87
2022-11-24T10:50:41.558Z,66.53
2022-11-24T10:53:25.616Z,66.45
2022-11-24T10:55:54.911Z,66.02
2022-11-24T10:58:26.643Z,66.10
2022-11-24T11:00:54.188Z,66.12
2022-11-24T11:03:26.195Z,66.30
2022-11-24T11:06:01.073Z,66.26
2022-11-24T11:08:32.563Z,66.17
2022-11-24T11:11:26.992Z,66.38
2022-11-24T11:14:03.974Z,66.12
2022-11-24T11:16:53.673Z,66.07
2022-11-24T11:19:49.003Z,65.95
2022-11-24T11:22:48.328Z,65.97
2022-11-24T11:25:18.786Z,66.00
2022-11-24T11:27:45.691Z,65.89
2022-11-24T11:36:11.783Z,65.06
2022-11-24T11:38:40.130Z,65.07
2022-11-24T11:41:14.423Z,65.11
2022-11-24T11:43:41.504Z,65.08
2022-11-24T11:46:07.956Z,65.33
2022-11-24T11:48:43.271Z,64.90
2022-11-24T11:51:25.565Z,64.75
2022-11-24T11:54:09.241Z,64.84
2022-11-24T11:56:45.034Z,65.00
2022-11-24T11:59:17.862Z,64.77
2022-11-24T12:02:13.740Z,65.07
2022-11-24T12:04:40.066Z,65.10
2022-11-24T12:07:25.046Z,65.18
2022-11-24T12:10:11.360Z,65.34
2022-11-24T12:13:00.718Z,65.14
2022-11-24T12:15:37.387Z,65.51
2022-11-24T12:18:33.097Z,65.89
2022-11-24T12:21:16.438Z,65.38
2022-11-24T12:24:23.788Z,65.30
2022-11-24T12:26:56.703Z,65.20
2022-11-24T12:29:44.859Z,64.75
2022-11-24T12:33:00.295Z,64.70
2022-11-24T12:35:36.961Z,64.22
2022-11-24T12:38:15.547Z,63.65
2022-11-24T12:40:47.159Z,63.20
2022-11-24T12:43:19.859Z,62.76
2022-11-24T12:46:01.913Z,62.69
2022-11-24T12:48:53.548Z,62.57
2022-11-24T12:51:27.563Z,62.71
2022-11-24T12:53:56.936Z,62.89
2022-11-24T12:56:37.806Z,62.77
2022-11-24T12:59:37.933Z,62.97
2022-11-24T13:02:09.430Z,62.92
2022-11-24T13:04:46.747Z,63.01
2022-11-24T13:07:18.055Z,62.87
2022-11-24T13:10:34.912Z,63.05
2022-11-24T13:13:10.829Z,63.23
2022-11-24T13:16:13.081Z,63.37
2022-11-24T13:19:09.434Z,62.90
2022-11-24T13:22:01.797Z,62.82
2022-11-24T13:24:31.020Z,62.54
2022-11-24T13:27:15.738Z,62.39
2022-11-24T13:29:43.817Z,62.17
2022-11-24T13:32:11.595Z,62.18
2022-11-24T13:34:42.484Z,62.28
2022-11-24T13:37:31.807Z,62.05
2022-11-24T13:40:11.375Z,62.31
2022-11-24T13:42:56.366Z,62.31
2022-11-24T13:45:50.344Z,62.08
2022-11-24T13:48:19.971Z,62.13
2022-11-24T13:50:49.552Z,62.07
2022-11-24T13:53:21.988Z,61.69
2022-11-24T13:55:57.978Z,61.81
2022-11-24T13:58:27.491Z,61.95
2022-11-24T14:01:10.247Z,61.79
2022-11-24T14:03:55.398Z,61.95
2022-11-24T14:06:38.113Z,61.47
2022-11-24T14:09:21.927Z,61.77
2022-11-24T14:12:00.451Z,61.88
2022-11-24T14:14:26.902Z,61.83
2022-11-24T14:17:06.868Z,62.04
2022-11-24T14:19:33.236Z,61.96
2022-11-24T14:21:59.576Z,61.86
2022-11-24T14:24:39.723Z,61.64
2022-11-24T14:27:15.248Z,61.82
2022-11-24T14:29:55.447Z,62.02
2022-11-24T14:32:22.076Z,61.77
2022-11-24T14:34:48.910Z,61.75
2022-11-24T14:37:15.246Z,61.61
2022-11-24T14:39:42.731Z,62.03
2022-11-24T14:42:14.734Z,62.13
2022-11-24T14:44:40.991Z,62.07
2022-11-24T14:47:28.759Z,62.09
2022-11-24T14:49:58.244Z,61.88
2022-11-24T14:52:25.483Z,61.24
2022-11-24T14:55:03.961Z,61.37
2022-11-24T14:57:44.424Z,60.88
2022-11-24T15:00:20.936Z,60.86
2022-11-24T15:02:51.919Z,60.63
2022-11-24T15:05:21.010Z,60.61
2022-11-24T15:07:49.555Z,60.58
2022-11-24T15:10:33.475Z,60.49
2022-11-24T15:13:03.102Z,60.68
2022-11-24T15:15:36.010Z,60.40
2022-11-24T15:18:04.650Z,60.52
2022-11-24T15:20:37.269Z,60.66
2022-11-24T15:23:30.799Z,60.74
2022-11-24T15:26:03.143Z,60.64
2022-11-24T15:28:30.606Z,61.03
2022-11-24T15:31:05.062Z,61.08
2022-11-24T15:33:31.938Z,61.36
2022-11-24T15:35:59.499Z,61.39
2022-11-24T15:38:25.886Z,61.78
2022-11-24T15:40:55.250Z,61.80
2022-11-24T15:43:29.346Z,61.79
2022-11-24T15:45:56.220Z,61.98
2022-11-24T15:48:22.601Z,62.10
2022-11-24T15:50:49.793Z,62.14
2022-11-24T15:53:24.008Z,62.35
2022-11-24T15:55:50.500Z,62.47
2022-11-24T15:58:16.849Z,62.48
2022-11-24T16:00:43.948Z,62.70
2022-11-24T16:03:44.290Z,62.79
2022-11-24T16:05:57.679Z,62.54
2022-11-24T16:08:24.053Z,63.11
2022-11-24T16:10:51.193Z,63.03
2022-11-24T16:13:17.533Z,63.00
2022-11-24T16:15:45.509Z,62.95
2022-11-24T16:18:13.807Z,63.22
2022-11-24T16:20:40.184Z,63.50
2022-11-24T16:23:06.564Z,63.30
2022-11-24T16:25:33.412Z,63.48
2022-11-24T16:27:59.797Z,63.84
2022-11-24T16:30:26.214Z,63.66
2022-11-24T16:32:52.745Z,64.08
2022-11-24T16:35:19.604Z,64.20
2022-11-24T16:37:45.938Z,64.20
2022-11-24T16:40:12.834Z,64.13
2022-11-24T16:42:39.168Z,63.95
2022-11-24T16:45:05.887Z,63.97
2022-11-24T16:47:32.229Z,64.15
2022-11-24T16:49:58.818Z,63.83
2022-11-24T16:52:25.670Z,64.24
2022-11-24T16:54:52.134Z,64.15
2022-11-24T16:57:18.593Z,64.19
2022-11-24T16:59:46.116Z,64.48
2022-11-24T17:02:14.104Z,64.26
2022-11-24T17:04:40.661Z,64.12
2022-11-24T17:07:07.752Z,64.26
2022-11-24T17:09:40.103Z,64.50
2022-11-24T17:12:07.033Z,64.72
2022-11-24T17:14:33.784Z,64.44
2022-11-24T17:17:00.423Z,64.94
2022-11-24T17:19:26.845Z,64.73
2022-11-24T17:21:54.479Z,65.36
2022-11-24T17:24:20.796Z,64.88
2022-11-24T17:26:49.476Z,65.01
2022-11-24T17:29:15.925Z,65.35
2022-11-24T17:31:42.349Z,65.50
2022-11-24T17:34:11.673Z,65.06
2022-11-24T17:36:39.739Z,65.26
2022-11-24T17:39:07.165Z,65.60
2022-11-24T17:41:34.024Z,65.46
2022-11-24T17:44:00.466Z,65.99
2022-11-24T17:46:28.317Z,65.93
2022-11-24T17:48:55.290Z,66.31
2022-11-24T17:51:24.272Z,66.22
2022-11-24T17:53:52.362Z,66.12
2022-11-24T17:56:26.995Z,66.60
2022-11-24T17:58:55.376Z,66.57
2022-11-24T18:01:22.255Z,66.42
2022-11-24T18:03:53.462Z,66.70
2022-11-24T18:06:21.077Z,66.32
2022-11-24T18:08:48.342Z,66.31
2022-11-24T18:11:24.626Z,66.34
2022-11-24T18:14:00.338Z,66.41
2022-11-24T18:16:30.029Z,66.62
2022-11-24T18:19:07.716Z,66.81
2022-11-24T18:21:46.051Z,66.79
2022-11-24T18:24:13.635Z,66.84
2022-11-24T18:26:41.448Z,66.65
2022-11-24T18:29:10.616Z,66.74
2022-11-24T18:31:37.727Z,67.06
2022-11-24T18:34:07.936Z,66.74
2022-11-24T18:36:34.937Z,67.03
2022-11-24T18:39:06.407Z,66.92
2022-11-24T18:41:33.380Z,67.25
2022-11-24T18:44:07.524Z,66.74
2022-11-24T18:46:33.842Z,67.04
2022-11-24T18:49:00.323Z,67.11
2022-11-24T18:51:27.357Z,67.10
2022-11-24T18:53:54.562Z,66.75
2022-11-24T18:56:30.345Z,66.90
2022-11-24T18:58:56.938Z,67.08
2022-11-24T19:01:26.314Z,67.09
2022-11-24T19:03:58.083Z,66.72
2022-11-24T19:06:33.612Z,67.20
2022-11-24T19:09:02.315Z,66.84
2022-11-24T19:11:33.537Z,67.10
2022-11-24T19:14:01.190Z,66.68
2022-11-24T19:16:27.559Z,66.89
2022-11-24T19:18:59.733Z,66.74
2022-11-24T19:21:27.070Z,66.79
2022-11-24T19:23:56.595Z,66.55
2022-11-24T19:26:26.201Z,67.11
2022-11-24T19:28:52.647Z,66.93
2022-11-24T19:31:19.536Z,66.97
2022-11-24T19:33:46.288Z,67.01
2022-11-24T19:36:16.006Z,66.93
2022-11-24T19:38:43.259Z,67.21
2022-11-24T19:41:13.888Z,67.02
2022-11-24T19:43:41.362Z,67.14
2022-11-24T19:46:12.967Z,67.04
2022-11-24T19:48:42.841Z,67.11
2022-11-24T19:51:13.786Z,66.81
2022-11-24T19:53:40.600Z,66.76
2022-11-24T19:56:08.709Z,66.62
2022-11-24T19:58:36.950Z,66.57
2022-11-24T20:01:09.282Z,66.49
2022-11-24T20:03:36.955Z,66.73
2022-11-24T20:06:04.511Z,66.74
2022-11-24T20:08:32.129Z,66.73
2022-11-24T20:11:05.818Z,66.48
2022-11-24T20:13:33.891Z,66.50
2022-11-24T20:16:11.795Z,66.50
2022-11-24T20:18:42.218Z,66.73
2022-11-24T20:21:16.829Z,66.98
2022-11-24T20:23:44.636Z,66.80
2022-11-24T20:26:14.156Z,66.79
2022-11-24T20:28:40.783Z,66.76
2022-11-24T20:31:10.517Z,67.04
2022-11-24T20:33:37.808Z,66.74
2022-11-24T20:36:11.823Z,66.83
2022-11-24T20:38:39.722Z,66.72
2022-11-24T20:41:10.770Z,66.71
2022-11-24T20:43:37.902Z,66.77
2022-11-24T20:46:06.618Z,67.03
2022-11-24T20:48:34.481Z,66.56
2022-11-24T20:51:06.424Z,66.71
2022-11-24T20:53:33.169Z,67.03
2022-11-24T20:56:09.355Z,66.87
2022-11-24T20:58:36.853Z,67.09
2022-11-24T21:01:11.856Z,66.78
2022-11-24T21:03:43.001Z,66.98
2022-11-24T21:06:11.228Z,66.96
2022-11-24T21:08:38.968Z,66.78
2022-11-24T21:11:06.774Z,67.07
2022-11-24T21:13:34.607Z,67.15
2022-11-24T21:16:06.532Z,66.85
2022-11-24T21:18:33.845Z,67.11
2022-11-24T21:21:00.162Z,67.23
2022-11-24T21:23:26.470Z,67.21
2022-11-24T21:25:52.855Z,66.93
2022-11-24T21:28:19.152Z,66.88
2022-11-24T21:30:45.598Z,67.00
2022-11-24T21:33:12.010Z,66.72
2022-11-24T21:35:38.361Z,67.37
2022-11-24T21:38:04.770Z,67.10
2022-11-24T21:40:31.119Z,66.86
2022-11-24T21:42:59.284Z,66.76
2022-11-24T21:45:29.067Z,66.83
2022-11-24T21:48:04.737Z,67.14
2022-11-24T21:50:31.087Z,67.64
2022-11-24T21:53:03.324Z,67.64
2022-11-24T21:55:30.003Z,67.68
2022-11-24T21:57:56.356Z,67.20
2022-11-24T22:00:22.717Z,67.45
2022-11-24T22:02:49.174Z,67.88
2022-11-24T22:05:15.674Z,67.50
2022-11-24T22:07:42.052Z,67.47
2022-11-24T22:10:09.249Z,67.62
2022-11-24T22:12:35.597Z,67.56
2022-11-24T22:15:02.162Z,67.75
2022-11-24T22:17:31.007Z,67.81
2022-11-24T22:19:57.342Z,67.69
2022-11-24T22:22:23.798Z,67.53
2022-11-24T22:24:50.135Z,67.67
2022-11-24T22:27:16.456Z,67.98
2022-11-24T22:29:42.780Z,67.95
2022-11-24T22:32:09.142Z,67.35
2022-11-24T22:34:35.800Z,67.04
2022-11-24T22:37:02.289Z,67.35
2022-11-24T22:39:28.632Z,67.16
2022-11-24T22:41:54.973Z,67.12
2022-11-24T22:44:21.329Z,66.97
2022-11-24T22:46:47.707Z,67.29
2022-11-24T22:49:14.084Z,66.91
2022-11-24T22:51:40.514Z,67.42
2022-11-24T22:54:06.878Z,67.06
2022-11-24T22:56:34.178Z,67.15
2022-11-24T22:59:02.178Z,67.15
2022-11-24T23:01:30.348Z,67.71
2022-11-24T23:03:57.278Z,67.54
2022-11-24T23:06:26.247Z,67.19
2022-11-24T23:08:53.401Z,67.56
2022-11-24T23:11:31.633Z,67.36
2022-11-24T23:14:01.777Z,67.54
2022-11-24T23:16:29.162Z,67.52
2022-11-24T23:18:55.803Z,67.78
2022-11-24T23:21:31.085Z,67.81
2022-11-24T23:23:59.585Z,67.48
2022-11-24T23:26:32.126Z,68.05
2022-11-24T23:28:58.850Z,68.00
2022-11-24T23:31:30.315Z,67.89
2022-11-24T23:34:04.132Z,67.72
2022-11-24T23:36:31.710Z,67.75
2022-11-24T23:39:06.595Z,68.06
2022-11-24T23:41:33.228Z,68.10
2022-11-24T23:44:00.015Z,67.70
2022-11-24T23:46:27.745Z,67.71
2022-11-24T23:48:55.430Z,67.70
2022-11-24T23:51:29.756Z,67.97
2022-11-24T23:53:57.065Z,67.86
2022-11-24T23:56:32.644Z,67.79
2022-11-24T23:59:00.505Z,67.85
